sensor_id;sensor_type;location;lat;lon;timestamp;temperature;humidity
17348;DHT22;8791;50.876;4.342;2023-07-20T00:00:56;17.70;99.90
17348;DHT22;8791;50.876;4.342;2023-07-20T00:03:23;17.80;99.90
17348;DHT22;8791;50.876;4.342;2023-07-20T00:05:51;17.70;99.90
17348;DHT22;8791;50.876;4.342;2023-07-20T00:08:18;17.80;99.90
17348;DHT22;8791;50.876;4.342;2023-07-20T00:10:46;17.70;99.90
17348;DHT22;8791;50.876;4.342;2023-07-20T00:13:13;17.80;99.90
17348;DHT22;8791;50.876;4.342;2023-07-20T00:15:41;17.90;99.90
17348;DHT22;8791;50.876;4.342;2023-07-20T00:18:08;17.70;99.90
17348;DHT22;8791;50.876;4.342;2023-07-20T00:20:35;17.70;99.90
17348;DHT22;8791;50.876;4.342;2023-07-20T00:23:02;17.80;99.90
17348;DHT22;8791;50.876;4.342;2023-07-20T00:25:29;17.70;99.90
17348;DHT22;8791;50.876;4.342;2023-07-20T00:27:59;17.70;99.90
17348;DHT22;8791;50.876;4.342;2023-07-20T00:30:35;17.80;99.90
17348;DHT22;8791;50.876;4.342;2023-07-20T00:33:05;18.10;99.90
17348;DHT22;8791;50.876;4.342;2023-07-20T00:35:32;17.70;99.90
17348;DHT22;8791;50.876;4.342;2023-07-20T00:37:58;17.60;99.90
17348;DHT22;8791;50.876;4.342;2023-07-20T00:40:25;17.60;99.90
17348;DHT22;8791;50.876;4.342;2023-07-20T00:42:52;17.70;99.90
17348;DHT22;8791;50.876;4.342;2023-07-20T00:45:21;17.60;99.90
17348;DHT22;8791;50.876;4.342;2023-07-20T00:47:47;17.70;99.90
17348;DHT22;8791;50.876;4.342;2023-07-20T00:50:14;17.60;99.90
17348;DHT22;8791;50.876;4.342;2023-07-20T00:52:42;17.40;99.90
17348;DHT22;8791;50.876;4.342;2023-07-20T00:55:09;17.50;99.90
17348;DHT22;8791;50.876;4.342;2023-07-20T00:57:36;17.50;99.90
17348;DHT22;8791;50.876;4.342;2023-07-20T01:00:06;17.50;99.90
17348;DHT22;8791;50.876;4.342;2023-07-20T01:02:34;17.60;99.90
17348;DHT22;8791;50.876;4.342;2023-07-20T01:05:02;17.50;99.90
17348;DHT22;8791;50.876;4.342;2023-07-20T01:07:33;17.70;99.90
17348;DHT22;8791;50.876;4.342;2023-07-20T01:10:05;17.70;99.90
17348;DHT22;8791;50.876;4.342;2023-07-20T01:12:41;17.70;99.90
17348;DHT22;8791;50.876;4.342;2023-07-20T01:15:08;17.80;99.90
17348;DHT22;8791;50.876;4.342;2023-07-20T01:17:37;17.80;99.90
17348;DHT22;8791;50.876;4.342;2023-07-20T01:20:05;17.90;99.90
17348;DHT22;8791;50.876;4.342;2023-07-20T01:22:48;18.00;99.90
17348;DHT22;8791;50.876;4.342;2023-07-20T01:25:40;17.90;99.90
17348;DHT22;8791;50.876;4.342;2023-07-20T01:31:21;17.90;99.90
17348;DHT22;8791;50.876;4.342;2023-07-20T01:33:50;18.00;99.90
17348;DHT22;8791;50.876;4.342;2023-07-20T01:36:18;18.00;99.90
17348;DHT22;8791;50.876;4.342;2023-07-20T01:38:46;18.10;99.90
17348;DHT22;8791;50.876;4.342;2023-07-20T01:41:14;18.00;99.90
17348;DHT22;8791;50.876;4.342;2023-07-20T01:43:42;17.90;99.90
17348;DHT22;8791;50.876;4.342;2023-07-20T01:46:09;18.00;99.90
17348;DHT22;8791;50.876;4.342;2023-07-20T01:48:37;17.90;99.90
17348;DHT22;8791;50.876;4.342;2023-07-20T01:51:04;17.90;99.90
17348;DHT22;8791;50.876;4.342;2023-07-20T01:53:31;17.90;99.90
17348;DHT22;8791;50.876;4.342;2023-07-20T01:55:58;17.80;99.90
17348;DHT22;8791;50.876;4.342;2023-07-20T01:58:25;17.70;99.90
17348;DHT22;8791;50.876;4.342;2023-07-20T02:00:52;17.60;99.90
17348;DHT22;8791;50.876;4.342;2023-07-20T02:03:19;17.70;99.90
17348;DHT22;8791;50.876;4.342;2023-07-20T02:05:48;17.80;99.90
17348;DHT22;8791;50.876;4.342;2023-07-20T02:08:16;17.80;99.90
17348;DHT22;8791;50.876;4.342;2023-07-20T02:10:45;17.80;99.90
17348;DHT22;8791;50.876;4.342;2023-07-20T02:13:12;17.80;99.90
17348;DHT22;8791;50.876;4.342;2023-07-20T02:15:39;17.90;99.90
17348;DHT22;8791;50.876;4.342;2023-07-20T02:18:06;17.80;99.90
17348;DHT22;8791;50.876;4.342;2023-07-20T02:20:33;17.70;99.90
17348;DHT22;8791;50.876;4.342;2023-07-20T02:23:01;17.90;99.90
17348;DHT22;8791;50.876;4.342;2023-07-20T02:25:28;17.90;99.90
17348;DHT22;8791;50.876;4.342;2023-07-20T02:27:56;17.80;99.90
17348;DHT22;8791;50.876;4.342;2023-07-20T02:30:23;17.70;99.90
17348;DHT22;8791;50.876;4.342;2023-07-20T02:32:50;17.60;99.90
17348;DHT22;8791;50.876;4.342;2023-07-20T02:35:17;17.40;99.90
17348;DHT22;8791;50.876;4.342;2023-07-20T02:37:44;17.50;99.90
17348;DHT22;8791;50.876;4.342;2023-07-20T02:40:12;17.50;99.90
17348;DHT22;8791;50.876;4.342;2023-07-20T02:42:39;17.40;99.90
17348;DHT22;8791;50.876;4.342;2023-07-20T02:45:07;17.40;99.90
17348;DHT22;8791;50.876;4.342;2023-07-20T02:47:34;17.30;99.90
17348;DHT22;8791;50.876;4.342;2023-07-20T02:50:01;17.30;99.90
17348;DHT22;8791;50.876;4.342;2023-07-20T02:52:27;17.30;99.90
17348;DHT22;8791;50.876;4.342;2023-07-20T02:54:55;17.30;99.90
17348;DHT22;8791;50.876;4.342;2023-07-20T02:57:23;17.30;99.90
17348;DHT22;8791;50.876;4.342;2023-07-20T02:59:50;17.30;99.90
17348;DHT22;8791;50.876;4.342;2023-07-20T03:02:17;17.30;99.90
17348;DHT22;8791;50.876;4.342;2023-07-20T03:04:44;17.30;99.90
17348;DHT22;8791;50.876;4.342;2023-07-20T03:07:11;17.30;99.90
17348;DHT22;8791;50.876;4.342;2023-07-20T03:09:38;17.40;99.90
17348;DHT22;8791;50.876;4.342;2023-07-20T03:12:06;17.50;99.90
17348;DHT22;8791;50.876;4.342;2023-07-20T03:14:35;17.50;99.90
17348;DHT22;8791;50.876;4.342;2023-07-20T03:17:02;17.50;99.90
17348;DHT22;8791;50.876;4.342;2023-07-20T03:19:30;17.40;99.90
17348;DHT22;8791;50.876;4.342;2023-07-20T03:21:56;17.50;99.90
17348;DHT22;8791;50.876;4.342;2023-07-20T03:24:23;17.50;99.90
17348;DHT22;8791;50.876;4.342;2023-07-20T03:26:50;17.40;99.90
17348;DHT22;8791;50.876;4.342;2023-07-20T03:29:18;17.40;99.90
17348;DHT22;8791;50.876;4.342;2023-07-20T03:31:46;17.20;99.90
17348;DHT22;8791;50.876;4.342;2023-07-20T03:34:13;17.10;99.90
17348;DHT22;8791;50.876;4.342;2023-07-20T03:36:40;17.20;99.90
17348;DHT22;8791;50.876;4.342;2023-07-20T03:39:07;17.20;99.90
17348;DHT22;8791;50.876;4.342;2023-07-20T03:41:34;17.20;99.90
17348;DHT22;8791;50.876;4.342;2023-07-20T03:44:02;17.10;99.90
17348;DHT22;8791;50.876;4.342;2023-07-20T03:46:29;17.00;99.90
17348;DHT22;8791;50.876;4.342;2023-07-20T03:48:58;17.20;99.90
17348;DHT22;8791;50.876;4.342;2023-07-20T03:51:24;17.30;99.90
17348;DHT22;8791;50.876;4.342;2023-07-20T03:53:51;17.20;99.90
17348;DHT22;8791;50.876;4.342;2023-07-20T03:56:18;17.20;99.90
17348;DHT22;8791;50.876;4.342;2023-07-20T03:58:45;17.30;99.90
17348;DHT22;8791;50.876;4.342;2023-07-20T04:01:12;17.50;99.90
17348;DHT22;8791;50.876;4.342;2023-07-20T04:03:39;17.40;99.90
17348;DHT22;8791;50.876;4.342;2023-07-20T04:06:07;17.30;99.90
17348;DHT22;8791;50.876;4.342;2023-07-20T04:08:36;17.50;99.90
17348;DHT22;8791;50.876;4.342;2023-07-20T04:11:03;17.60;99.90
17348;DHT22;8791;50.876;4.342;2023-07-20T04:13:30;17.70;99.90
17348;DHT22;8791;50.876;4.342;2023-07-20T04:15:58;17.80;99.90
17348;DHT22;8791;50.876;4.342;2023-07-20T04:18:25;17.80;99.90
17348;DHT22;8791;50.876;4.342;2023-07-20T04:20:52;17.80;99.90
17348;DHT22;8791;50.876;4.342;2023-07-20T04:23:21;17.80;99.90
17348;DHT22;8791;50.876;4.342;2023-07-20T04:25:51;17.70;99.90
17348;DHT22;8791;50.876;4.342;2023-07-20T04:28:18;17.60;99.90
17348;DHT22;8791;50.876;4.342;2023-07-20T04:30:48;17.60;99.90
17348;DHT22;8791;50.876;4.342;2023-07-20T04:33:15;17.50;99.90
17348;DHT22;8791;50.876;4.342;2023-07-20T04:35:47;17.50;99.90
17348;DHT22;8791;50.876;4.342;2023-07-20T04:38:15;17.60;99.90
17348;DHT22;8791;50.876;4.342;2023-07-20T04:40:44;17.60;99.90
17348;DHT22;8791;50.876;4.342;2023-07-20T04:43:11;17.50;99.90
17348;DHT22;8791;50.876;4.342;2023-07-20T04:45:38;17.50;99.90
17348;DHT22;8791;50.876;4.342;2023-07-20T04:48:09;17.50;99.90
17348;DHT22;8791;50.876;4.342;2023-07-20T04:50:36;17.40;99.90
17348;DHT22;8791;50.876;4.342;2023-07-20T04:53:03;17.50;99.90
17348;DHT22;8791;50.876;4.342;2023-07-20T04:55:30;17.50;99.90
17348;DHT22;8791;50.876;4.342;2023-07-20T04:58:00;17.50;99.90
17348;DHT22;8791;50.876;4.342;2023-07-20T05:00:28;17.50;99.90
17348;DHT22;8791;50.876;4.342;2023-07-20T05:02:54;17.50;99.90
17348;DHT22;8791;50.876;4.342;2023-07-20T05:05:21;17.60;99.90
17348;DHT22;8791;50.876;4.342;2023-07-20T05:07:48;17.60;99.90
17348;DHT22;8791;50.876;4.342;2023-07-20T05:10:15;17.70;99.90
17348;DHT22;8791;50.876;4.342;2023-07-20T05:12:42;17.70;99.90
17348;DHT22;8791;50.876;4.342;2023-07-20T05:15:10;17.80;99.90
17348;DHT22;8791;50.876;4.342;2023-07-20T05:17:37;17.80;99.90
17348;DHT22;8791;50.876;4.342;2023-07-20T05:20:06;18.10;99.90
17348;DHT22;8791;50.876;4.342;2023-07-20T05:22:35;18.40;99.90
17348;DHT22;8791;50.876;4.342;2023-07-20T05:25:06;18.50;99.90
17348;DHT22;8791;50.876;4.342;2023-07-20T05:27:33;18.40;99.90
17348;DHT22;8791;50.876;4.342;2023-07-20T05:30:01;18.30;99.90
17348;DHT22;8791;50.876;4.342;2023-07-20T05:32:29;18.30;99.90
17348;DHT22;8791;50.876;4.342;2023-07-20T05:34:56;18.20;99.90
17348;DHT22;8791;50.876;4.342;2023-07-20T05:37:23;18.30;99.90
17348;DHT22;8791;50.876;4.342;2023-07-20T05:39:50;18.40;99.90
17348;DHT22;8791;50.876;4.342;2023-07-20T05:42:17;18.20;99.90
17348;DHT22;8791;50.876;4.342;2023-07-20T05:44:44;18.10;99.90
17348;DHT22;8791;50.876;4.342;2023-07-20T05:47:12;18.20;99.90
17348;DHT22;8791;50.876;4.342;2023-07-20T05:49:42;18.10;99.90
17348;DHT22;8791;50.876;4.342;2023-07-20T05:52:09;18.20;99.90
17348;DHT22;8791;50.876;4.342;2023-07-20T05:54:36;18.20;99.90
17348;DHT22;8791;50.876;4.342;2023-07-20T05:57:03;18.20;99.90
17348;DHT22;8791;50.876;4.342;2023-07-20T05:59:30;18.10;99.90
17348;DHT22;8791;50.876;4.342;2023-07-20T06:01:57;18.20;99.90
17348;DHT22;8791;50.876;4.342;2023-07-20T06:04:24;18.20;99.90
17348;DHT22;8791;50.876;4.342;2023-07-20T06:06:52;18.10;99.90
17348;DHT22;8791;50.876;4.342;2023-07-20T06:09:21;18.20;99.90
17348;DHT22;8791;50.876;4.342;2023-07-20T06:11:48;18.20;99.90
17348;DHT22;8791;50.876;4.342;2023-07-20T06:14:15;18.20;99.90
17348;DHT22;8791;50.876;4.342;2023-07-20T06:16:44;18.30;99.90
17348;DHT22;8791;50.876;4.342;2023-07-20T06:19:11;18.10;99.90
17348;DHT22;8791;50.876;4.342;2023-07-20T06:21:37;18.20;99.90
17348;DHT22;8791;50.876;4.342;2023-07-20T06:24:06;18.50;99.90
17348;DHT22;8791;50.876;4.342;2023-07-20T06:26:33;18.40;99.90
17348;DHT22;8791;50.876;4.342;2023-07-20T06:29:04;18.20;99.90
17348;DHT22;8791;50.876;4.342;2023-07-20T06:31:31;18.30;99.90
17348;DHT22;8791;50.876;4.342;2023-07-20T06:33:58;18.20;99.90
17348;DHT22;8791;50.876;4.342;2023-07-20T06:36:25;18.30;99.90
17348;DHT22;8791;50.876;4.342;2023-07-20T06:38:52;18.30;99.90
17348;DHT22;8791;50.876;4.342;2023-07-20T06:41:20;18.50;99.90
17348;DHT22;8791;50.876;4.342;2023-07-20T06:43:48;18.70;99.90
17348;DHT22;8791;50.876;4.342;2023-07-20T06:46:14;18.80;99.90
17348;DHT22;8791;50.876;4.342;2023-07-20T06:48:41;18.60;99.90
17348;DHT22;8791;50.876;4.342;2023-07-20T06:51:08;18.70;99.90
17348;DHT22;8791;50.876;4.342;2023-07-20T06:53:35;18.80;99.90
17348;DHT22;8791;50.876;4.342;2023-07-20T06:56:02;18.90;99.90
17348;DHT22;8791;50.876;4.342;2023-07-20T06:58:30;19.00;99.90
17348;DHT22;8791;50.876;4.342;2023-07-20T07:01:05;19.00;99.90
17348;DHT22;8791;50.876;4.342;2023-07-20T07:03:33;19.10;99.90
17348;DHT22;8791;50.876;4.342;2023-07-20T07:06:00;19.30;99.90
17348;DHT22;8791;50.876;4.342;2023-07-20T07:08:27;19.50;99.90
17348;DHT22;8791;50.876;4.342;2023-07-20T07:10:54;19.60;99.90
17348;DHT22;8791;50.876;4.342;2023-07-20T07:13:21;19.70;99.90
17348;DHT22;8791;50.876;4.342;2023-07-20T07:15:49;19.70;99.90
17348;DHT22;8791;50.876;4.342;2023-07-20T07:18:16;19.70;99.90
17348;DHT22;8791;50.876;4.342;2023-07-20T07:20:50;19.60;99.90
17348;DHT22;8791;50.876;4.342;2023-07-20T07:23:17;19.50;99.90
17348;DHT22;8791;50.876;4.342;2023-07-20T07:25:45;19.60;99.90
17348;DHT22;8791;50.876;4.342;2023-07-20T07:28:12;19.70;99.90
17348;DHT22;8791;50.876;4.342;2023-07-20T07:30:38;19.80;99.90
17348;DHT22;8791;50.876;4.342;2023-07-20T07:33:07;19.60;99.90
17348;DHT22;8791;50.876;4.342;2023-07-20T07:35:34;19.50;99.90
17348;DHT22;8791;50.876;4.342;2023-07-20T07:38:01;19.50;99.90
17348;DHT22;8791;50.876;4.342;2023-07-20T07:40:27;19.00;99.90
17348;DHT22;8791;50.876;4.342;2023-07-20T07:42:54;19.00;99.90
17348;DHT22;8791;50.876;4.342;2023-07-20T07:45:21;19.30;99.90
17348;DHT22;8791;50.876;4.342;2023-07-20T07:47:48;19.50;99.90
17348;DHT22;8791;50.876;4.342;2023-07-20T07:50:16;19.50;99.90
17348;DHT22;8791;50.876;4.342;2023-07-20T07:52:43;19.60;99.90
17348;DHT22;8791;50.876;4.342;2023-07-20T07:55:10;19.80;99.90
17348;DHT22;8791;50.876;4.342;2023-07-20T07:57:37;19.70;99.90
17348;DHT22;8791;50.876;4.342;2023-07-20T08:00:05;20.00;99.90
17348;DHT22;8791;50.876;4.342;2023-07-20T08:02:36;20.30;99.90
17348;DHT22;8791;50.876;4.342;2023-07-20T08:05:03;20.30;99.90
17348;DHT22;8791;50.876;4.342;2023-07-20T08:07:31;20.20;99.90
17348;DHT22;8791;50.876;4.342;2023-07-20T08:09:58;20.10;99.90
17348;DHT22;8791;50.876;4.342;2023-07-20T08:12:26;20.20;99.90
17348;DHT22;8791;50.876;4.342;2023-07-20T08:14:53;20.30;99.90
17348;DHT22;8791;50.876;4.342;2023-07-20T08:17:20;20.20;99.90
17348;DHT22;8791;50.876;4.342;2023-07-20T08:19:47;20.30;99.90
17348;DHT22;8791;50.876;4.342;2023-07-20T08:22:14;20.30;99.90
17348;DHT22;8791;50.876;4.342;2023-07-20T08:24:43;20.30;99.90
17348;DHT22;8791;50.876;4.342;2023-07-20T08:27:10;20.30;99.90
17348;DHT22;8791;50.876;4.342;2023-07-20T08:29:37;20.10;99.90
17348;DHT22;8791;50.876;4.342;2023-07-20T08:32:06;20.30;99.90
17348;DHT22;8791;50.876;4.342;2023-07-20T08:34:35;20.70;99.90
17348;DHT22;8791;50.876;4.342;2023-07-20T08:37:24;21.00;99.90
17348;DHT22;8791;50.876;4.342;2023-07-20T08:39:53;20.80;99.90
17348;DHT22;8791;50.876;4.342;2023-07-20T08:42:20;20.70;99.90
17348;DHT22;8791;50.876;4.342;2023-07-20T08:44:50;20.80;99.90
17348;DHT22;8791;50.876;4.342;2023-07-20T08:47:20;20.90;99.90
17348;DHT22;8791;50.876;4.342;2023-07-20T08:49:49;21.00;99.90
17348;DHT22;8791;50.876;4.342;2023-07-20T08:52:16;20.90;99.90
17348;DHT22;8791;50.876;4.342;2023-07-20T08:54:43;20.90;99.90
17348;DHT22;8791;50.876;4.342;2023-07-20T08:57:13;21.00;99.90
17348;DHT22;8791;50.876;4.342;2023-07-20T08:59:41;21.00;99.90
17348;DHT22;8791;50.876;4.342;2023-07-20T09:02:09;20.90;99.90
17348;DHT22;8791;50.876;4.342;2023-07-20T09:04:39;21.10;99.90
17348;DHT22;8791;50.876;4.342;2023-07-20T09:07:06;21.10;99.90
17348;DHT22;8791;50.876;4.342;2023-07-20T09:09:33;20.90;99.90
17348;DHT22;8791;50.876;4.342;2023-07-20T09:12:17;21.00;99.90
17348;DHT22;8791;50.876;4.342;2023-07-20T09:14:44;21.10;99.90
17348;DHT22;8791;50.876;4.342;2023-07-20T09:17:13;21.30;99.90
17348;DHT22;8791;50.876;4.342;2023-07-20T09:19:46;21.60;99.90
17348;DHT22;8791;50.876;4.342;2023-07-20T09:22:14;21.50;99.90
17348;DHT22;8791;50.876;4.342;2023-07-20T09:24:40;21.60;99.90
17348;DHT22;8791;50.876;4.342;2023-07-20T09:27:08;21.90;99.90
17348;DHT22;8791;50.876;4.342;2023-07-20T09:29:47;22.30;99.90
17348;DHT22;8791;50.876;4.342;2023-07-20T09:32:18;22.40;99.90
17348;DHT22;8791;50.876;4.342;2023-07-20T09:34:46;22.50;99.90
17348;DHT22;8791;50.876;4.342;2023-07-20T09:37:14;22.60;99.90
17348;DHT22;8791;50.876;4.342;2023-07-20T09:39:44;22.70;99.90
17348;DHT22;8791;50.876;4.342;2023-07-20T09:42:12;22.60;99.90
17348;DHT22;8791;50.876;4.342;2023-07-20T09:44:42;22.60;99.90
17348;DHT22;8791;50.876;4.342;2023-07-20T09:47:10;22.80;99.90
17348;DHT22;8791;50.876;4.342;2023-07-20T09:49:39;22.80;99.90
17348;DHT22;8791;50.876;4.342;2023-07-20T09:52:08;22.80;99.90
17348;DHT22;8791;50.876;4.342;2023-07-20T09:54:37;22.70;99.90
17348;DHT22;8791;50.876;4.342;2023-07-20T09:57:07;22.80;99.90
17348;DHT22;8791;50.876;4.342;2023-07-20T09:59:34;22.80;99.90
17348;DHT22;8791;50.876;4.342;2023-07-20T10:02:12;22.60;99.90
17348;DHT22;8791;50.876;4.342;2023-07-20T10:04:41;22.30;99.90
17348;DHT22;8791;50.876;4.342;2023-07-20T10:07:10;22.20;99.90
17348;DHT22;8791;50.876;4.342;2023-07-20T10:09:39;21.90;99.90
17348;DHT22;8791;50.876;4.342;2023-07-20T10:12:08;21.90;99.90
17348;DHT22;8791;50.876;4.342;2023-07-20T10:14:40;21.80;99.90
17348;DHT22;8791;50.876;4.342;2023-07-20T10:17:11;21.80;99.90
17348;DHT22;8791;50.876;4.342;2023-07-20T10:19:43;21.60;99.90
17348;DHT22;8791;50.876;4.342;2023-07-20T10:22:13;21.60;99.90
17348;DHT22;8791;50.876;4.342;2023-07-20T10:24:45;21.80;99.90
17348;DHT22;8791;50.876;4.342;2023-07-20T10:27:13;22.00;99.90
17348;DHT22;8791;50.876;4.342;2023-07-20T10:29:40;22.20;99.90
17348;DHT22;8791;50.876;4.342;2023-07-20T10:32:09;22.30;99.90
17348;DHT22;8791;50.876;4.342;2023-07-20T10:34:36;22.50;99.90
17348;DHT22;8791;50.876;4.342;2023-07-20T10:37:04;22.70;99.90
17348;DHT22;8791;50.876;4.342;2023-07-20T10:39:32;22.70;99.90
17348;DHT22;8791;50.876;4.342;2023-07-20T10:42:03;22.60;99.90
17348;DHT22;8791;50.876;4.342;2023-07-20T10:44:33;22.70;99.90
17348;DHT22;8791;50.876;4.342;2023-07-20T10:47:01;23.00;99.90
17348;DHT22;8791;50.876;4.342;2023-07-20T10:49:29;23.10;99.90
17348;DHT22;8791;50.876;4.342;2023-07-20T10:51:59;23.10;99.90
17348;DHT22;8791;50.876;4.342;2023-07-20T10:54:34;23.20;99.90
17348;DHT22;8791;50.876;4.342;2023-07-20T10:57:23;23.50;99.90
17348;DHT22;8791;50.876;4.342;2023-07-20T10:59:50;23.60;99.90
17348;DHT22;8791;50.876;4.342;2023-07-20T11:02:18;23.50;99.90
17348;DHT22;8791;50.876;4.342;2023-07-20T11:04:47;23.40;99.90
17348;DHT22;8791;50.876;4.342;2023-07-20T11:07:18;23.50;99.90
17348;DHT22;8791;50.876;4.342;2023-07-20T11:09:44;23.60;99.90
17348;DHT22;8791;50.876;4.342;2023-07-20T11:12:13;23.90;99.90
17348;DHT22;8791;50.876;4.342;2023-07-20T11:14:44;24.10;99.90
17348;DHT22;8791;50.876;4.342;2023-07-20T11:17:19;24.00;99.90
17348;DHT22;8791;50.876;4.342;2023-07-20T11:19:49;24.20;99.90
17348;DHT22;8791;50.876;4.342;2023-07-20T11:22:17;24.20;99.90
17348;DHT22;8791;50.876;4.342;2023-07-20T11:24:44;24.10;99.90
17348;DHT22;8791;50.876;4.342;2023-07-20T11:27:11;24.20;99.90
17348;DHT22;8791;50.876;4.342;2023-07-20T11:29:38;24.10;99.90
17348;DHT22;8791;50.876;4.342;2023-07-20T11:32:05;24.10;99.90
17348;DHT22;8791;50.876;4.342;2023-07-20T11:34:33;23.50;99.90
17348;DHT22;8791;50.876;4.342;2023-07-20T11:37:01;23.00;99.90
17348;DHT22;8791;50.876;4.342;2023-07-20T11:39:29;23.00;99.90
17348;DHT22;8791;50.876;4.342;2023-07-20T11:41:56;23.30;99.90
17348;DHT22;8791;50.876;4.342;2023-07-20T11:44:24;23.60;99.90
17348;DHT22;8791;50.876;4.342;2023-07-20T11:47:00;23.80;99.90
17348;DHT22;8791;50.876;4.342;2023-07-20T11:49:29;23.80;99.90
17348;DHT22;8791;50.876;4.342;2023-07-20T11:51:56;23.80;99.90
17348;DHT22;8791;50.876;4.342;2023-07-20T11:54:25;23.90;99.90
17348;DHT22;8791;50.876;4.342;2023-07-20T11:56:54;24.10;99.90
17348;DHT22;8791;50.876;4.342;2023-07-20T11:59:21;24.20;99.90
17348;DHT22;8791;50.876;4.342;2023-07-20T12:01:48;24.30;99.90
17348;DHT22;8791;50.876;4.342;2023-07-20T12:04:15;24.30;99.90
17348;DHT22;8791;50.876;4.342;2023-07-20T12:06:42;24.10;99.90
17348;DHT22;8791;50.876;4.342;2023-07-20T12:09:14;24.30;99.90
17348;DHT22;8791;50.876;4.342;2023-07-20T12:11:43;24.20;99.90
17348;DHT22;8791;50.876;4.342;2023-07-20T12:14:11;24.10;99.90
17348;DHT22;8791;50.876;4.342;2023-07-20T12:16:38;23.90;99.90
17348;DHT22;8791;50.876;4.342;2023-07-20T12:19:43;24.10;99.90
17348;DHT22;8791;50.876;4.342;2023-07-20T12:21:59;23.90;99.90
17348;DHT22;8791;50.876;4.342;2023-07-20T12:24:26;23.90;99.90
17348;DHT22;8791;50.876;4.342;2023-07-20T12:26:58;23.80;99.90
17348;DHT22;8791;50.876;4.342;2023-07-20T12:29:25;23.60;99.90
17348;DHT22;8791;50.876;4.342;2023-07-20T12:31:52;23.90;99.90
17348;DHT22;8791;50.876;4.342;2023-07-20T12:34:18;23.90;99.90
17348;DHT22;8791;50.876;4.342;2023-07-20T12:36:45;24.20;99.90
17348;DHT22;8791;50.876;4.342;2023-07-20T12:39:12;24.10;99.90
17348;DHT22;8791;50.876;4.342;2023-07-20T12:41:39;24.20;99.90
17348;DHT22;8791;50.876;4.342;2023-07-20T12:44:08;24.50;99.90
17348;DHT22;8791;50.876;4.342;2023-07-20T12:46:35;24.60;99.90
17348;DHT22;8791;50.876;4.342;2023-07-20T12:49:03;24.30;99.90
17348;DHT22;8791;50.876;4.342;2023-07-20T12:51:29;24.40;99.90
17348;DHT22;8791;50.876;4.342;2023-07-20T12:53:56;24.30;99.90
17348;DHT22;8791;50.876;4.342;2023-07-20T12:56:23;24.30;99.90
17348;DHT22;8791;50.876;4.342;2023-07-20T12:58:50;24.10;99.90
17348;DHT22;8791;50.876;4.342;2023-07-20T13:01:18;24.30;99.90
17348;DHT22;8791;50.876;4.342;2023-07-20T13:03:45;24.40;99.90
17348;DHT22;8791;50.876;4.342;2023-07-20T13:06:12;24.50;99.90
17348;DHT22;8791;50.876;4.342;2023-07-20T13:08:39;24.20;99.90
17348;DHT22;8791;50.876;4.342;2023-07-20T13:11:06;24.20;99.90
17348;DHT22;8791;50.876;4.342;2023-07-20T13:13:33;24.20;99.90
17348;DHT22;8791;50.876;4.342;2023-07-20T13:16:00;24.30;99.90
17348;DHT22;8791;50.876;4.342;2023-07-20T13:18:28;24.30;99.90
17348;DHT22;8791;50.876;4.342;2023-07-20T13:20:55;24.20;99.90
17348;DHT22;8791;50.876;4.342;2023-07-20T13:23:22;24.10;99.90
17348;DHT22;8791;50.876;4.342;2023-07-20T13:25:49;23.60;99.90
17348;DHT22;8791;50.876;4.342;2023-07-20T13:28:16;23.40;99.90
17348;DHT22;8791;50.876;4.342;2023-07-20T13:30:43;23.50;99.90
17348;DHT22;8791;50.876;4.342;2023-07-20T13:33:11;23.40;99.90
17348;DHT22;8791;50.876;4.342;2023-07-20T13:35:42;23.60;99.90
17348;DHT22;8791;50.876;4.342;2023-07-20T13:38:12;23.30;99.90
17348;DHT22;8791;50.876;4.342;2023-07-20T13:40:39;23.00;99.90
17348;DHT22;8791;50.876;4.342;2023-07-20T13:43:06;22.70;99.90
17348;DHT22;8791;50.876;4.342;2023-07-20T13:45:33;22.10;99.90
17348;DHT22;8791;50.876;4.342;2023-07-20T13:47:59;21.90;99.90
17348;DHT22;8791;50.876;4.342;2023-07-20T13:50:26;21.50;99.90
17348;DHT22;8791;50.876;4.342;2023-07-20T13:52:55;21.40;99.90
17348;DHT22;8791;50.876;4.342;2023-07-20T13:55:32;21.20;99.90
17348;DHT22;8791;50.876;4.342;2023-07-20T13:58:02;21.40;99.90
17348;DHT22;8791;50.876;4.342;2023-07-20T14:00:29;21.30;99.90
17348;DHT22;8791;50.876;4.342;2023-07-20T14:02:58;21.30;99.90
17348;DHT22;8791;50.876;4.342;2023-07-20T14:05:25;21.00;99.90
17348;DHT22;8791;50.876;4.342;2023-07-20T14:07:55;20.90;99.90
17348;DHT22;8791;50.876;4.342;2023-07-20T14:10:22;20.90;99.90
17348;DHT22;8791;50.876;4.342;2023-07-20T14:12:49;21.10;99.90
17348;DHT22;8791;50.876;4.342;2023-07-20T14:15:16;21.20;99.90
17348;DHT22;8791;50.876;4.342;2023-07-20T14:17:54;21.30;99.90
17348;DHT22;8791;50.876;4.342;2023-07-20T14:20:21;21.30;99.90
17348;DHT22;8791;50.876;4.342;2023-07-20T14:22:48;21.80;99.90
17348;DHT22;8791;50.876;4.342;2023-07-20T14:25:16;22.20;99.90
17348;DHT22;8791;50.876;4.342;2023-07-20T14:27:43;22.40;99.90
17348;DHT22;8791;50.876;4.342;2023-07-20T14:30:11;22.60;99.90
17348;DHT22;8791;50.876;4.342;2023-07-20T14:32:38;22.40;99.90
17348;DHT22;8791;50.876;4.342;2023-07-20T14:35:08;22.50;99.90
17348;DHT22;8791;50.876;4.342;2023-07-20T14:37:35;22.40;99.90
17348;DHT22;8791;50.876;4.342;2023-07-20T14:40:02;22.60;99.90
17348;DHT22;8791;50.876;4.342;2023-07-20T14:42:32;22.90;99.90
17348;DHT22;8791;50.876;4.342;2023-07-20T14:44:59;23.20;99.90
17348;DHT22;8791;50.876;4.342;2023-07-20T14:47:33;23.30;99.90
17348;DHT22;8791;50.876;4.342;2023-07-20T14:50:01;23.20;99.90
17348;DHT22;8791;50.876;4.342;2023-07-20T14:52:29;23.20;99.90
17348;DHT22;8791;50.876;4.342;2023-07-20T14:54:56;23.10;99.90
17348;DHT22;8791;50.876;4.342;2023-07-20T14:57:23;23.20;99.90
17348;DHT22;8791;50.876;4.342;2023-07-20T14:59:51;23.30;99.90
17348;DHT22;8791;50.876;4.342;2023-07-20T15:02:18;23.30;99.90
17348;DHT22;8791;50.876;4.342;2023-07-20T15:04:51;23.20;99.90
17348;DHT22;8791;50.876;4.342;2023-07-20T15:07:19;23.20;99.90
17348;DHT22;8791;50.876;4.342;2023-07-20T15:09:47;23.00;99.90
17348;DHT22;8791;50.876;4.342;2023-07-20T15:12:14;23.10;99.90
17348;DHT22;8791;50.876;4.342;2023-07-20T15:14:42;22.90;99.90
17348;DHT22;8791;50.876;4.342;2023-07-20T15:17:11;23.00;99.90
17348;DHT22;8791;50.876;4.342;2023-07-20T15:19:38;22.70;99.90
17348;DHT22;8791;50.876;4.342;2023-07-20T15:22:05;22.60;99.90
17348;DHT22;8791;50.876;4.342;2023-07-20T15:24:33;22.50;99.90
17348;DHT22;8791;50.876;4.342;2023-07-20T15:27:04;22.50;99.90
17348;DHT22;8791;50.876;4.342;2023-07-20T15:29:31;22.50;99.90
17348;DHT22;8791;50.876;4.342;2023-07-20T15:31:58;22.40;99.90
17348;DHT22;8791;50.876;4.342;2023-07-20T15:34:26;22.30;99.90
17348;DHT22;8791;50.876;4.342;2023-07-20T15:36:53;22.00;99.90
17348;DHT22;8791;50.876;4.342;2023-07-20T15:39:20;21.70;99.90
17348;DHT22;8791;50.876;4.342;2023-07-20T15:41:47;21.90;99.90
17348;DHT22;8791;50.876;4.342;2023-07-20T15:44:14;21.70;99.90
17348;DHT22;8791;50.876;4.342;2023-07-20T15:46:47;21.20;99.90
17348;DHT22;8791;50.876;4.342;2023-07-20T15:49:15;20.40;99.90
17348;DHT22;8791;50.876;4.342;2023-07-20T15:51:43;19.20;99.90
17348;DHT22;8791;50.876;4.342;2023-07-20T15:54:13;18.60;99.90